createdAt,value
2023-03-31T00:04:52.747Z,98203.30
2023-03-31T00:10:10.404Z,98201.58
2023-03-31T00:15:22.503Z,98210.30
2023-03-31T00:20:26.088Z,98214.52
2023-03-31T00:25:29.526Z,98214.63
2023-03-31T00:30:32.753Z,98213.36
2023-03-31T00:35:39.496Z,98215.54
2023-03-31T00:40:47.474Z,98215.87
2023-03-31T00:45:51.122Z,98223.10
2023-03-31T00:50:58.034Z,98214.21
2023-03-31T00:56:08.598Z,98215.36
2023-03-31T01:01:17.690Z,98212.50
2023-03-31T01:06:21.454Z,98207.33
2023-03-31T01:11:27.705Z,98200.77
2023-03-31T01:16:34.212Z,98203.47
2023-03-31T01:22:03.586Z,98203.48
2023-03-31T01:27:51.271Z,98203.12
2023-03-31T01:33:22.755Z,98208.02
2023-03-31T01:39:02.197Z,98201.14
2023-03-31T01:44:32.637Z,98196.03
2023-03-31T01:50:02.685Z,98199.29
2023-03-31T01:55:25.608Z,98202.14
2023-03-31T02:00:38.417Z,98208.31
2023-03-31T02:05:48.103Z,98207.98
2023-03-31T02:10:53.743Z,98210.73
2023-03-31T02:16:01.911Z,98209.60
2023-03-31T02:21:08.881Z,98205.73
2023-03-31T02:26:17.684Z,98212.19
2023-03-31T02:31:46.655Z,98206.80
2023-03-31T02:36:50.796Z,98210.39
2023-03-31T02:41:55.163Z,98207.05
2023-03-31T02:46:58.779Z,98211.67
2023-03-31T02:52:32.127Z,98209.79
2023-03-31T02:57:38.320Z,98212.05
2023-03-31T03:02:44.850Z,98211.45
2023-03-31T03:08:18.631Z,98207.67
2023-03-31T03:13:31.462Z,98205.20
2023-03-31T03:18:34.840Z,98201.72
2023-03-31T03:23:38.398Z,98202.85
2023-03-31T03:28:41.919Z,98211.71
2023-03-31T03:33:45.572Z,98216.58
2023-03-31T03:38:48.848Z,98209.39
2023-03-31T03:43:52.220Z,98209.73
2023-03-31T03:48:56.167Z,98211.61
2023-03-31T03:53:59.447Z,98200.33
2023-03-31T03:59:02.925Z,98194.99
2023-03-31T04:04:06.256Z,98192.84
2023-03-31T04:09:09.697Z,98190.73
2023-03-31T04:14:13.119Z,98188.27
2023-03-31T04:19:22.071Z,98181.84
2023-03-31T04:24:33.269Z,98178.47
2023-03-31T04:29:37.441Z,98173.41
2023-03-31T04:34:40.739Z,98160.02
2023-03-31T04:39:46.918Z,98164.48
2023-03-31T04:44:50.165Z,98163.90
2023-03-31T04:49:53.522Z,98159.41
2023-03-31T04:54:56.770Z,98156.95
2023-03-31T05:00:00.172Z,98160.29
2023-03-31T05:05:04.724Z,98161.95
2023-03-31T05:10:08.652Z,98159.90
2023-03-31T05:15:13.501Z,98157.21
2023-03-31T05:20:19.745Z,98147.89
2023-03-31T05:25:23.847Z,98150.48
2023-03-31T05:30:28.221Z,98150.73
2023-03-31T05:35:31.686Z,98140.65
2023-03-31T05:40:35.060Z,98135.52
2023-03-31T05:45:38.454Z,98131.33
2023-03-31T05:50:43.261Z,98127.27
2023-03-31T05:55:47.207Z,98119.27
2023-03-31T06:00:50.460Z,98113.46
2023-03-31T06:05:54.335Z,98108.74
2023-03-31T06:10:58.537Z,98106.06
2023-03-31T06:16:02.113Z,98109.91
2023-03-31T06:21:06.334Z,98112.39
2023-03-31T06:26:16.339Z,98114.29
2023-03-31T06:31:22.736Z,98109.31
2023-03-31T06:36:26.269Z,98108.86
2023-03-31T06:41:29.484Z,98105.26
2023-03-31T06:46:34.095Z,98106.00
2023-03-31T06:51:37.431Z,98103.63
2023-03-31T06:56:40.913Z,98101.20
2023-03-31T07:01:46.215Z,98100.15
2023-03-31T07:06:49.552Z,98101.42
2023-03-31T07:11:56.291Z,98100.95
2023-03-31T07:17:00.485Z,98096.20
2023-03-31T07:22:04.524Z,98087.73
2023-03-31T07:27:07.783Z,98083.98
2023-03-31T07:32:11.498Z,98085.67
2023-03-31T07:37:14.814Z,98079.25
2023-03-31T07:42:18.476Z,98069.00
2023-03-31T07:47:24.711Z,98065.73
2023-03-31T07:52:28.220Z,98055.95
2023-03-31T07:57:31.768Z,98057.86
2023-03-31T08:02:36.534Z,98061.98
2023-03-31T08:07:44.166Z,98059.75
2023-03-31T08:12:58.543Z,98046.19
2023-03-31T08:18:04.260Z,98037.50
2023-03-31T08:23:12.424Z,98032.23
2023-03-31T08:28:16.413Z,98023.68
2023-03-31T08:33:41.672Z,98018.68
2023-03-31T08:38:49.961Z,98013.33
2023-03-31T08:44:15.959Z,98016.09
2023-03-31T08:49:22.586Z,98008.41
2023-03-31T08:54:49.869Z,97997.11
2023-03-31T08:59:58.605Z,97989.17
2023-03-31T09:05:11.765Z,97980.38
2023-03-31T09:10:30.599Z,97974.86
2023-03-31T09:15:46.626Z,97970.20
2023-03-31T09:20:53.876Z,97952.00
2023-03-31T09:25:59.836Z,97952.48
2023-03-31T09:31:17.832Z,97951.65
2023-03-31T09:36:26.071Z,97941.98
2023-03-31T09:43:42.365Z,97928.38
2023-03-31T09:48:55.089Z,97911.13
2023-03-31T09:54:11.037Z,97901.39
2023-03-31T09:59:36.270Z,97887.58
2023-03-31T10:04:46.854Z,97869.41
2023-03-31T10:09:51.958Z,97867.70
2023-03-31T10:20:43.793Z,97859.67
2023-03-31T10:29:33.903Z,97845.14
2023-03-31T10:34:43.162Z,97846.13
2023-03-31T10:39:48.235Z,97829.94
2023-03-31T10:45:37.854Z,97830.27
2023-03-31T10:50:43.980Z,97822.55
2023-03-31T10:55:47.639Z,97812.98
2023-03-31T11:01:26.391Z,97809.95
2023-03-31T11:06:38.103Z,97808.49
2023-03-31T11:11:54.355Z,97804.30
2023-03-31T11:17:24.027Z,97792.83
2023-03-31T11:22:53.063Z,97785.17
2023-03-31T11:28:20.481Z,97782.27
2023-03-31T11:33:41.619Z,97781.27
2023-03-31T11:38:57.098Z,97770.13
2023-03-31T11:44:13.310Z,97768.95
2023-03-31T11:49:22.255Z,97769.20
2023-03-31T11:54:32.051Z,97761.14
2023-03-31T11:59:37.713Z,97752.34
2023-03-31T12:04:43.488Z,97746.61
2023-03-31T12:10:15.476Z,97742.76
2023-03-31T12:15:27.642Z,97738.14
2023-03-31T12:20:35.198Z,97735.66
2023-03-31T12:25:54.071Z,97725.11
2023-03-31T12:30:58.226Z,97722.48
2023-03-31T12:36:05.435Z,97709.83
2023-03-31T12:41:15.119Z,97691.92
2023-03-31T12:46:41.322Z,97676.13
2023-03-31T12:52:27.812Z,97668.83
2023-03-31T12:57:31.161Z,97662.88
2023-03-31T13:02:34.770Z,97648.45
2023-03-31T13:07:41.815Z,97645.08
2023-03-31T13:13:01.325Z,97635.85
2023-03-31T13:18:07.226Z,97624.92
2023-03-31T13:23:28.843Z,97615.41
2023-03-31T13:28:47.190Z,97600.30
2023-03-31T13:34:07.844Z,97590.16
2023-03-31T13:40:27.583Z,97586.34
2023-03-31T13:45:28.794Z,97561.20
2023-03-31T13:50:42.406Z,97545.36
2023-03-31T13:55:58.768Z,97545.20
2023-03-31T14:01:35.126Z,97538.89
2023-03-31T14:06:57.242Z,97538.88
2023-03-31T14:12:02.163Z,97532.35
2023-03-31T14:17:08.997Z,97539.31
2023-03-31T14:22:43.830Z,97539.20
2023-03-31T14:28:21.997Z,97542.92
2023-03-31T14:33:49.330Z,97537.16
2023-03-31T14:38:53.261Z,97527.02
2023-03-31T15:45:31.499Z,97449.96
2023-03-31T15:50:35.036Z,97447.95
2023-03-31T16:00:52.715Z,97437.53
2023-03-31T16:06:06.930Z,97430.09
2023-03-31T16:11:36.090Z,97418.79
2023-03-31T16:16:46.713Z,97411.80
2023-03-31T16:21:55.223Z,97405.27
2023-03-31T16:27:03.140Z,97397.26
2023-03-31T16:32:21.012Z,97391.70
2023-03-31T16:37:25.102Z,97379.69
2023-03-31T16:42:29.003Z,97371.95
2023-03-31T16:47:35.672Z,97366.62
2023-03-31T16:52:41.961Z,97353.38
2023-03-31T16:57:45.993Z,97358.47
2023-03-31T17:02:49.891Z,97363.98
2023-03-31T17:07:53.713Z,97362.06
2023-03-31T17:12:58.011Z,97363.81
2023-03-31T17:18:02.893Z,97364.34
2023-03-31T17:23:08.037Z,97360.42
2023-03-31T17:28:14.389Z,97361.00
2023-03-31T17:33:18.266Z,97354.13
2023-03-31T17:38:22.934Z,97344.23
2023-03-31T17:43:27.718Z,97336.46
2023-03-31T17:48:32.189Z,97332.78
2023-03-31T17:53:40.118Z,97326.61
2023-03-31T17:58:44.320Z,97321.59
2023-03-31T18:03:48.039Z,97315.66
2023-03-31T18:08:53.427Z,97309.30
2023-03-31T18:13:57.044Z,97303.69
2023-03-31T18:19:00.872Z,97302.45
2023-03-31T18:24:04.463Z,97294.94
2023-03-31T18:29:08.391Z,97306.23
2023-03-31T18:34:16.558Z,97311.61
2023-03-31T18:42:50.158Z,97313.70
2023-03-31T18:47:53.582Z,97305.35
2023-03-31T18:52:56.765Z,97300.50
2023-03-31T18:58:00.116Z,97298.23
2023-03-31T19:03:04.045Z,97298.19
2023-03-31T19:08:07.557Z,97289.22
2023-03-31T19:13:16.299Z,97289.46
2023-03-31T19:18:19.792Z,97286.86
2023-03-31T19:23:23.181Z,97281.16
2023-03-31T19:28:27.864Z,97277.08
2023-03-31T19:33:34.726Z,97270.84
2023-03-31T19:38:38.140Z,97263.51
2023-03-31T19:43:41.912Z,97255.54
2023-03-31T19:48:45.648Z,97260.32
2023-03-31T19:53:49.148Z,97274.59
2023-03-31T19:58:52.809Z,97262.08
2023-03-31T20:03:57.156Z,97259.60
2023-03-31T20:09:03.796Z,97258.80
2023-03-31T20:14:07.771Z,97257.52
2023-03-31T20:19:13.227Z,97251.02
2023-03-31T20:24:18.515Z,97244.61
2023-03-31T20:29:22.582Z,97241.38
2023-03-31T20:34:27.747Z,97233.13
2023-03-31T20:39:31.555Z,97232.89
2023-03-31T20:44:34.947Z,97232.34
2023-03-31T20:49:40.352Z,97232.77
2023-03-31T20:54:44.876Z,97235.52
2023-03-31T20:59:48.666Z,97239.98
2023-03-31T21:05:01.369Z,97247.27
2023-03-31T21:10:05.805Z,97244.81
2023-03-31T21:15:10.362Z,97256.36
2023-03-31T21:20:13.850Z,97276.25
2023-03-31T21:25:17.495Z,97274.08
2023-03-31T21:30:44.862Z,97273.81
2023-03-31T21:35:46.060Z,97278.02
2023-03-31T21:40:52.372Z,97270.08
2023-03-31T21:45:58.529Z,97268.52
2023-03-31T21:51:03.273Z,97273.80
2023-03-31T21:56:06.722Z,97266.02
2023-03-31T22:01:13.654Z,97273.09
2023-03-31T22:06:17.432Z,97264.14
2023-03-31T22:11:23.095Z,97267.24
2023-03-31T22:16:26.922Z,97274.61
2023-03-31T22:21:31.197Z,97276.92
2023-03-31T22:26:35.105Z,97278.63
2023-03-31T22:31:38.793Z,97276.55
2023-03-31T22:36:45.481Z,97276.83
2023-03-31T22:41:49.935Z,97278.05
2023-03-31T22:46:53.612Z,97283.19
2023-03-31T22:52:01.142Z,97270.95
2023-03-31T22:57:05.202Z,97277.67
2023-03-31T23:02:11.086Z,97280.68
2023-03-31T23:07:16.285Z,97277.33
2023-03-31T23:12:25.539Z,97282.16
2023-03-31T23:17:29.290Z,97284.42
2023-03-31T23:22:34.278Z,97272.54
2023-03-31T23:27:37.786Z,97280.29
2023-03-31T23:32:40.987Z,97283.75
2023-03-31T23:37:44.322Z,97279.67
2023-03-31T23:42:47.540Z,97272.42
2023-03-31T23:47:51.058Z,97272.20
2023-03-31T23:52:55.776Z,97271.73
2023-03-31T23:57:58.927Z,97270.04
